createdAt,value
2023-05-09T00:00:45.535Z,51.06
2023-05-09T00:03:12.823Z,51.17
2023-05-09T00:05:39.784Z,51.21
2023-05-09T00:08:06.773Z,51.29
2023-05-09T00:10:33.310Z,51.40
2023-05-09T00:13:00.909Z,51.42
2023-05-09T00:15:28.851Z,51.42
2023-05-09T00:17:55.486Z,51.59
2023-05-09T00:20:22.222Z,51.63
2023-05-09T00:22:48.748Z,51.69
2023-05-09T00:25:15.608Z,51.73
2023-05-09T00:27:42.366Z,51.81
2023-05-09T00:30:09.197Z,51.83
2023-05-09T00:32:36.119Z,51.97
2023-05-09T00:35:03.122Z,51.99
2023-05-09T00:37:31.270Z,51.85
2023-05-09T00:39:57.922Z,51.99
2023-05-09T00:42:24.740Z,52.18
2023-05-09T00:44:51.363Z,52.27
2023-05-09T00:47:18.033Z,52.33
2023-05-09T00:49:44.759Z,52.46
2023-05-09T00:52:11.402Z,52.56
2023-05-09T00:54:38.135Z,52.50
2023-05-09T00:57:04.737Z,52.36
2023-05-09T00:59:31.337Z,52.32
2023-05-09T01:01:58.167Z,52.38
2023-05-09T01:04:24.878Z,52.53
2023-05-09T01:07:02.902Z,52.57
2023-05-09T01:09:43.081Z,52.71
2023-05-09T01:12:49.902Z,52.95
2023-05-09T01:15:45.971Z,53.12
2023-05-09T01:18:26.190Z,53.26
2023-05-09T01:21:03.612Z,53.25
2023-05-09T01:23:45.284Z,53.46
2023-05-09T01:26:34.880Z,53.35
2023-05-09T01:29:40.303Z,53.31
2023-05-09T01:32:15.622Z,53.44
2023-05-09T01:34:44.699Z,53.66
2023-05-09T01:37:14.649Z,53.79
2023-05-09T01:39:49.164Z,53.85
2023-05-09T01:42:18.821Z,53.82
2023-05-09T01:44:47.192Z,53.79
2023-05-09T01:47:16.496Z,53.68
2023-05-09T01:49:44.470Z,53.81
2023-05-09T01:52:16.693Z,53.85
2023-05-09T01:54:48.132Z,53.90
2023-05-09T01:57:15.479Z,54.12
2023-05-09T01:59:45.192Z,54.25
2023-05-09T02:02:12.788Z,54.38
2023-05-09T02:04:43.194Z,54.41
2023-05-09T02:07:11.788Z,54.44
2023-05-09T02:09:38.418Z,54.38
2023-05-09T02:12:05.204Z,54.33
2023-05-09T02:14:32.261Z,54.49
2023-05-09T02:17:06.937Z,54.53
2023-05-09T02:19:35.596Z,54.76
2023-05-09T02:22:04.811Z,54.84
2023-05-09T02:24:33.680Z,54.81
2023-05-09T02:27:03.247Z,54.75
2023-05-09T02:29:32.111Z,54.81
2023-05-09T02:32:01.508Z,54.90
2023-05-09T02:34:28.348Z,55.01
2023-05-09T02:36:55.825Z,55.19
2023-05-09T02:39:22.965Z,55.36
2023-05-09T02:41:49.832Z,55.36
2023-05-09T02:44:16.430Z,55.49
2023-05-09T02:46:42.941Z,55.59
2023-05-09T02:49:11.403Z,55.59
2023-05-09T02:51:43.548Z,55.69
2023-05-09T02:54:10.084Z,55.70
2023-05-09T02:56:36.668Z,55.84
2023-05-09T02:59:03.198Z,55.75
2023-05-09T03:01:29.824Z,55.88
2023-05-09T03:03:56.409Z,55.98
2023-05-09T03:06:23.606Z,56.00
2023-05-09T03:08:50.136Z,56.01
2023-05-09T03:11:17.201Z,56.15
2023-05-09T03:13:45.669Z,56.18
2023-05-09T03:16:15.085Z,56.26
2023-05-09T03:18:42.140Z,56.33
2023-05-09T03:21:09.927Z,56.31
2023-05-09T03:23:36.956Z,56.39
2023-05-09T03:26:06.049Z,56.33
2023-05-09T03:28:32.963Z,56.37
2023-05-09T03:31:01.681Z,56.46
2023-05-09T03:33:28.963Z,56.38
2023-05-09T03:35:55.597Z,56.42
2023-05-09T03:38:24.368Z,56.46
2023-05-09T03:40:51.440Z,56.54
2023-05-09T03:43:18.041Z,56.58
2023-05-09T03:45:44.728Z,56.54
2023-05-09T03:48:12.039Z,56.61
2023-05-09T03:50:43.468Z,56.64
2023-05-09T03:53:10.697Z,56.55
2023-05-09T03:55:37.593Z,56.59
2023-05-09T03:58:04.501Z,56.69
2023-05-09T04:00:31.516Z,56.61
2023-05-09T04:03:03.956Z,56.77
2023-05-09T04:05:35.606Z,56.80
2023-05-09T04:08:03.565Z,56.76
2023-05-09T04:10:32.049Z,56.88
2023-05-09T04:12:58.963Z,56.85
2023-05-09T04:15:25.679Z,56.91
2023-05-09T04:17:52.271Z,56.91
2023-05-09T04:20:19.009Z,56.81
2023-05-09T04:22:47.071Z,56.94
2023-05-09T04:25:16.119Z,56.90
2023-05-09T04:27:42.954Z,56.95
2023-05-09T04:30:10.437Z,57.09
2023-05-09T04:32:37.244Z,56.92
2023-05-09T04:35:05.056Z,56.68
2023-05-09T04:37:33.826Z,56.75
2023-05-09T04:40:01.544Z,56.85
2023-05-09T04:42:35.116Z,57.07
2023-05-09T04:45:02.071Z,56.82
2023-05-09T04:47:29.116Z,56.87
2023-05-09T04:49:55.678Z,56.84
2023-05-09T04:52:22.245Z,56.98
2023-05-09T04:54:48.932Z,56.87
2023-05-09T04:57:18.823Z,56.80
2023-05-09T04:59:50.539Z,56.82
2023-05-09T05:02:18.052Z,56.80
2023-05-09T05:04:47.623Z,56.81
2023-05-09T05:07:15.020Z,56.80
2023-05-09T05:09:43.467Z,56.81
2023-05-09T05:12:10.748Z,56.76
2023-05-09T05:14:38.333Z,56.72
2023-05-09T05:17:05.546Z,56.69
2023-05-09T05:19:32.189Z,56.61
2023-05-09T05:21:58.954Z,56.55
2023-05-09T05:24:28.052Z,56.50
2023-05-09T05:26:55.563Z,56.43
2023-05-09T05:29:22.330Z,56.38
2023-05-09T05:31:48.970Z,56.38
2023-05-09T05:34:16.783Z,56.32
2023-05-09T05:36:44.073Z,56.17
2023-05-09T05:39:10.874Z,56.05
2023-05-09T05:41:37.409Z,55.98
2023-05-09T05:44:05.082Z,55.84
2023-05-09T05:46:32.475Z,55.69
2023-05-09T05:48:59.577Z,55.56
2023-05-09T05:51:26.965Z,55.42
2023-05-09T05:53:53.494Z,55.19
2023-05-09T05:56:20.692Z,55.20
2023-05-09T05:58:47.399Z,55.08
2023-05-09T06:01:14.589Z,54.87
2023-05-09T06:03:41.231Z,54.83
2023-05-09T06:06:09.465Z,54.71
2023-05-09T06:08:36.024Z,54.55
2023-05-09T06:11:02.951Z,54.51
2023-05-09T06:13:29.550Z,54.43
2023-05-09T06:16:14.968Z,54.44
2023-05-09T06:18:48.025Z,54.38
2023-05-09T06:21:14.605Z,54.22
2023-05-09T06:23:56.869Z,53.98
2023-05-09T06:26:27.627Z,53.84
2023-05-09T06:28:54.151Z,53.79
2023-05-09T06:31:21.136Z,53.82
2023-05-09T06:33:48.542Z,53.51
2023-05-09T06:36:15.327Z,53.20
2023-05-09T06:38:41.857Z,53.04
2023-05-09T06:41:08.382Z,52.79
2023-05-09T06:43:34.910Z,52.56
2023-05-09T06:46:02.439Z,52.49
2023-05-09T06:48:28.971Z,51.87
2023-05-09T06:50:55.591Z,51.52
2023-05-09T06:53:22.608Z,51.45
2023-05-09T06:55:49.349Z,50.71
2023-05-09T06:58:16.079Z,50.20
2023-05-09T07:00:42.750Z,50.16
2023-05-09T07:03:10.577Z,50.01
2023-05-09T07:05:37.207Z,48.78
2023-05-09T07:08:04.180Z,47.31
2023-05-09T07:10:31.192Z,45.95
2023-05-09T07:12:58.106Z,45.10
2023-05-09T07:15:39.742Z,44.88
2023-05-09T07:18:08.119Z,45.57
2023-05-09T07:20:34.957Z,45.47
2023-05-09T07:23:04.092Z,44.90
2023-05-09T07:25:34.535Z,44.99
2023-05-09T07:28:01.112Z,44.12
2023-05-09T07:30:27.918Z,42.59
2023-05-09T07:32:54.562Z,42.03
2023-05-09T07:35:21.773Z,42.68
2023-05-09T07:37:48.505Z,42.07
2023-05-09T07:40:15.625Z,42.00
2023-05-09T07:42:49.915Z,40.74
2023-05-09T07:45:17.524Z,40.35
2023-05-09T07:47:45.007Z,41.06
2023-05-09T07:50:11.564Z,40.91
2023-05-09T07:52:38.243Z,39.63
2023-05-09T07:55:05.483Z,39.60
2023-05-09T07:57:32.305Z,39.42
2023-05-09T07:59:58.892Z,39.37
2023-05-09T08:02:25.720Z,38.95
2023-05-09T08:04:52.484Z,38.22
2023-05-09T08:07:19.049Z,37.55
2023-05-09T08:09:45.827Z,36.76
2023-05-09T08:12:12.735Z,36.44
2023-05-09T08:14:39.422Z,36.72
2023-05-09T08:17:06.122Z,37.44
2023-05-09T08:19:32.701Z,37.24
2023-05-09T08:21:59.507Z,37.00
2023-05-09T08:24:26.511Z,36.75
2023-05-09T08:26:53.097Z,36.02
2023-05-09T08:29:19.692Z,36.81
2023-05-09T08:31:46.365Z,35.89
2023-05-09T08:34:13.002Z,34.31
2023-05-09T08:36:41.008Z,34.44
2023-05-09T08:39:08.753Z,34.64
2023-05-09T08:41:36.242Z,34.29
2023-05-09T08:44:04.176Z,33.82
2023-05-09T08:46:41.878Z,33.05
2023-05-09T08:49:09.340Z,32.60
2023-05-09T08:51:37.147Z,32.82
2023-05-09T08:54:04.331Z,33.78
2023-05-09T08:56:31.640Z,33.84
2023-05-09T08:58:59.068Z,33.77
2023-05-09T09:01:27.024Z,33.08
2023-05-09T09:03:54.242Z,32.54
2023-05-09T09:06:23.434Z,32.14
2023-05-09T09:08:50.576Z,32.82
2023-05-09T09:11:18.677Z,33.09
2023-05-09T09:13:46.965Z,32.20
2023-05-09T09:16:20.622Z,32.25
2023-05-09T09:18:48.271Z,31.63
2023-05-09T09:21:19.308Z,31.73
2023-05-09T09:23:47.665Z,31.74
2023-05-09T09:26:14.997Z,31.41
2023-05-09T09:28:42.663Z,31.45
2023-05-09T09:31:26.292Z,31.22
2023-05-09T09:33:59.488Z,31.22
2023-05-09T09:36:28.117Z,30.75
2023-05-09T09:39:04.769Z,30.70
2023-05-09T09:41:31.866Z,30.84
2023-05-09T09:43:58.925Z,30.60
2023-05-09T09:46:26.154Z,30.18
2023-05-09T09:48:56.833Z,30.55
2023-05-09T09:51:27.652Z,30.78
2023-05-09T09:53:56.964Z,31.11
2023-05-09T09:56:45.730Z,31.03
2023-05-09T09:59:17.437Z,31.39
2023-05-09T10:02:07.840Z,30.45
2023-05-09T10:04:37.034Z,30.83
2023-05-09T10:07:06.339Z,31.09
2023-05-09T10:09:34.308Z,29.65
2023-05-09T10:12:06.484Z,28.46
2023-05-09T10:14:35.812Z,27.99
2023-05-09T10:17:05.444Z,28.37
2023-05-09T10:19:32.957Z,28.58
2023-05-09T10:22:05.315Z,27.95
2023-05-09T10:24:42.184Z,28.42
2023-05-09T10:27:13.060Z,28.64
2023-05-09T10:29:46.469Z,28.61
2023-05-09T10:32:28.071Z,28.69
2023-05-09T10:35:05.857Z,29.12
2023-05-09T10:37:33.704Z,28.50
2023-05-09T10:40:05.117Z,28.61
2023-05-09T10:42:32.116Z,28.64
2023-05-09T10:44:58.661Z,28.58
2023-05-09T10:47:29.717Z,28.85
2023-05-09T10:49:57.741Z,28.65
2023-05-09T10:52:24.333Z,28.54
2023-05-09T10:55:02.028Z,28.98
2023-05-09T10:57:30.368Z,29.24
2023-05-09T10:59:58.714Z,28.19
2023-05-09T11:02:33.969Z,28.20
2023-05-09T11:05:17.573Z,28.55
2023-05-09T11:07:44.308Z,27.81
2023-05-09T11:10:15.189Z,27.87
2023-05-09T11:12:59.500Z,27.52
2023-05-09T11:15:27.911Z,27.96
2023-05-09T11:18:11.021Z,27.95
2023-05-09T11:20:46.463Z,27.15
2023-05-09T11:23:17.548Z,27.53
2023-05-09T11:25:47.757Z,27.71
2023-05-09T11:28:28.815Z,27.97
2023-05-09T11:31:10.062Z,27.93
2023-05-09T11:33:38.125Z,27.64
2023-05-09T11:36:38.601Z,27.71
2023-05-09T11:39:05.494Z,27.93
2023-05-09T11:41:39.528Z,27.71
2023-05-09T11:44:20.547Z,27.70
2023-05-09T11:46:49.270Z,27.30
2023-05-09T11:49:17.394Z,27.01
2023-05-09T11:51:44.244Z,27.76
2023-05-09T11:54:12.399Z,28.09
2023-05-09T11:56:41.811Z,27.40
2023-05-09T11:59:10.692Z,27.12
2023-05-09T12:01:37.757Z,27.23
2023-05-09T12:04:07.367Z,27.84
2023-05-09T12:06:34.309Z,27.83
2023-05-09T12:09:00.956Z,28.27
2023-05-09T12:11:32.400Z,28.21
2023-05-09T12:13:59.345Z,27.88
2023-05-09T12:16:26.144Z,27.63
2023-05-09T12:18:53.205Z,28.08
2023-05-09T12:21:20.478Z,27.93
2023-05-09T12:23:50.688Z,27.98
2023-05-09T12:26:18.296Z,27.94
2023-05-09T12:28:45.922Z,27.68
2023-05-09T12:31:13.241Z,27.66
2023-05-09T12:33:40.607Z,27.49
2023-05-09T12:36:09.677Z,27.49
2023-05-09T12:38:37.532Z,27.04
2023-05-09T12:41:18.203Z,26.86
2023-05-09T12:43:50.220Z,27.34
2023-05-09T12:46:21.279Z,27.58
2023-05-09T12:48:49.499Z,27.38
2023-05-09T12:51:20.932Z,27.34
2023-05-09T12:53:47.785Z,27.21
2023-05-09T12:56:17.689Z,27.33
2023-05-09T12:58:51.366Z,27.26
2023-05-09T13:01:19.714Z,27.26
2023-05-09T13:03:52.099Z,27.36
2023-05-09T13:06:19.130Z,27.84
2023-05-09T13:08:59.280Z,27.76
2023-05-09T13:11:25.864Z,27.49
2023-05-09T13:13:54.539Z,27.50
2023-05-09T13:16:21.237Z,27.34
2023-05-09T13:18:48.351Z,27.23
2023-05-09T13:21:14.840Z,27.08
2023-05-09T13:23:42.336Z,27.31
2023-05-09T13:26:10.476Z,27.50
2023-05-09T13:28:37.092Z,27.69
2023-05-09T13:31:04.119Z,27.86
2023-05-09T13:33:30.848Z,27.76
2023-05-09T13:35:57.650Z,27.66
2023-05-09T13:38:24.377Z,27.63
2023-05-09T13:40:51.667Z,27.70
2023-05-09T13:43:18.370Z,27.91
2023-05-09T13:45:45.142Z,27.77
2023-05-09T13:48:11.953Z,27.61
2023-05-09T13:50:38.749Z,27.54
2023-05-09T13:53:05.563Z,27.53
2023-05-09T13:55:32.646Z,27.63
2023-05-09T13:57:59.240Z,27.82
2023-05-09T14:00:26.693Z,27.76
2023-05-09T14:02:53.660Z,28.23
2023-05-09T14:05:20.250Z,28.35
2023-05-09T14:07:47.646Z,28.33
2023-05-09T14:10:14.405Z,28.24
2023-05-09T14:12:44.156Z,28.12
2023-05-09T14:15:11.180Z,27.78
2023-05-09T14:17:37.968Z,27.88
2023-05-09T14:20:05.119Z,27.94
2023-05-09T14:22:31.738Z,28.36
2023-05-09T14:24:58.788Z,28.30
2023-05-09T14:27:26.299Z,28.50
2023-05-09T14:29:53.277Z,28.33
2023-05-09T14:32:19.835Z,28.48
2023-05-09T14:34:49.469Z,28.47
2023-05-09T14:37:16.898Z,28.59
2023-05-09T14:39:45.338Z,28.65
2023-05-09T14:42:14.032Z,28.84
2023-05-09T14:44:41.325Z,28.87
2023-05-09T14:47:09.478Z,28.69
2023-05-09T14:49:38.753Z,28.85
2023-05-09T14:52:05.927Z,28.71
2023-05-09T14:54:32.675Z,28.82
2023-05-09T14:56:59.621Z,28.69
2023-05-09T14:59:26.329Z,28.76
2023-05-09T15:01:52.987Z,28.83
2023-05-09T15:04:19.817Z,28.91
2023-05-09T15:06:46.420Z,29.05
2023-05-09T15:09:13.873Z,29.01
2023-05-09T15:11:47.507Z,28.97
2023-05-09T15:14:16.830Z,28.98
2023-05-09T15:16:44.138Z,28.98
2023-05-09T15:19:11.045Z,29.28
2023-05-09T15:21:37.695Z,29.42
2023-05-09T15:24:04.904Z,29.39
2023-05-09T15:26:32.088Z,29.25
2023-05-09T15:28:58.757Z,29.50
2023-05-09T15:31:25.955Z,29.35
2023-05-09T15:33:52.616Z,29.49
2023-05-09T15:36:19.419Z,29.61
2023-05-09T15:38:49.440Z,29.78
2023-05-09T15:41:16.766Z,29.78
2023-05-09T15:43:43.678Z,29.57
2023-05-09T15:46:10.599Z,29.73
2023-05-09T15:48:37.436Z,29.87
2023-05-09T15:51:04.265Z,29.78
2023-05-09T15:53:31.164Z,29.64
2023-05-09T15:55:57.887Z,29.76
2023-05-09T15:58:24.475Z,29.71
2023-05-09T16:00:51.198Z,29.79
2023-05-09T16:03:18.740Z,29.96
2023-05-09T16:05:45.605Z,29.95
2023-05-09T16:08:12.615Z,29.92
2023-05-09T16:10:39.220Z,29.89
2023-05-09T16:13:05.901Z,30.12
2023-05-09T16:15:32.899Z,30.00
2023-05-09T16:17:59.535Z,30.02
2023-05-09T16:20:26.168Z,30.05
2023-05-09T16:22:52.666Z,30.04
2023-05-09T16:25:19.452Z,30.17
2023-05-09T16:27:46.137Z,30.22
2023-05-09T16:30:13.742Z,30.20
2023-05-09T16:32:40.721Z,30.21
2023-05-09T16:35:07.995Z,30.28
2023-05-09T16:37:35.662Z,30.23
2023-05-09T16:40:02.855Z,30.26
2023-05-09T16:42:29.861Z,30.53
2023-05-09T16:44:57.522Z,30.43
2023-05-09T16:47:24.154Z,30.59
2023-05-09T16:49:50.959Z,30.48
2023-05-09T16:52:17.686Z,30.68
2023-05-09T16:54:44.185Z,30.69
2023-05-09T16:57:10.850Z,30.72
2023-05-09T16:59:37.794Z,30.61
2023-05-09T17:02:04.572Z,30.66
2023-05-09T17:04:31.605Z,30.86
2023-05-09T17:06:58.412Z,30.76
2023-05-09T17:09:25.397Z,30.62
2023-05-09T17:11:52.106Z,30.75
2023-05-09T17:14:18.899Z,31.08
2023-05-09T17:16:45.632Z,30.97
2023-05-09T17:19:12.420Z,30.86
2023-05-09T17:21:41.771Z,30.94
2023-05-09T17:24:09.563Z,31.09
2023-05-09T17:26:36.241Z,31.02
2023-05-09T17:29:03.802Z,31.01
2023-05-09T17:31:31.432Z,30.97
2023-05-09T17:33:58.083Z,31.26
2023-05-09T17:36:25.776Z,31.30
2023-05-09T17:38:52.919Z,31.05
2023-05-09T17:41:19.685Z,31.16
2023-05-09T17:43:46.431Z,31.32
2023-05-09T17:46:14.848Z,31.38
2023-05-09T17:48:42.109Z,31.39
2023-05-09T17:51:09.124Z,31.30
2023-05-09T17:53:35.759Z,31.42
2023-05-09T17:56:02.439Z,31.63
2023-05-09T17:58:29.939Z,31.58
2023-05-09T18:00:58.720Z,31.68
2023-05-09T18:03:29.122Z,31.77
2023-05-09T18:05:55.982Z,31.83
2023-05-09T18:08:22.644Z,31.84
2023-05-09T18:10:49.797Z,31.92
2023-05-09T18:13:17.184Z,31.92
2023-05-09T18:15:43.967Z,32.14
2023-05-09T18:18:12.904Z,32.05
2023-05-09T18:20:42.134Z,32.05
2023-05-09T18:23:08.716Z,32.40
2023-05-09T18:25:35.309Z,32.43
2023-05-09T18:28:01.842Z,32.53
2023-05-09T18:30:28.896Z,32.63
2023-05-09T18:32:59.991Z,32.63
2023-05-09T18:35:26.789Z,32.75
2023-05-09T18:37:53.777Z,32.80
2023-05-09T18:40:20.385Z,32.75
2023-05-09T18:42:47.290Z,32.94
2023-05-09T18:45:14.100Z,33.14
2023-05-09T18:47:40.740Z,33.31
2023-05-09T18:50:08.110Z,33.40
2023-05-09T18:52:35.023Z,33.44
2023-05-09T18:55:01.684Z,33.40
2023-05-09T18:57:28.342Z,33.59
2023-05-09T18:59:56.001Z,33.76
2023-05-09T19:02:23.614Z,33.88
2023-05-09T19:04:51.499Z,33.94
2023-05-09T19:07:18.516Z,34.01
2023-05-09T19:09:45.833Z,34.20
2023-05-09T19:12:12.472Z,34.28
2023-05-09T19:14:39.067Z,34.40
2023-05-09T19:17:05.981Z,34.56
2023-05-09T19:19:33.104Z,34.50
2023-05-09T19:22:01.813Z,34.66
2023-05-09T19:24:28.499Z,34.85
2023-05-09T19:26:55.359Z,34.99
2023-05-09T19:29:22.015Z,35.03
2023-05-09T19:31:48.638Z,35.07
2023-05-09T19:34:15.413Z,35.30
2023-05-09T19:36:41.988Z,35.39
2023-05-09T19:39:09.165Z,35.55
2023-05-09T19:41:35.972Z,35.47
2023-05-09T19:44:02.789Z,35.55
2023-05-09T19:46:29.883Z,35.67
2023-05-09T19:48:56.796Z,35.75
2023-05-09T19:51:23.488Z,35.63
2023-05-09T19:53:53.081Z,35.85
2023-05-09T19:56:23.243Z,35.98
2023-05-09T19:58:50.441Z,36.16
2023-05-09T20:01:19.174Z,36.14
2023-05-09T20:03:52.878Z,36.33
2023-05-09T20:06:19.740Z,36.52
2023-05-09T20:08:47.722Z,36.65
2023-05-09T20:11:14.985Z,36.67
2023-05-09T20:13:43.175Z,36.79
2023-05-09T20:16:10.046Z,37.01
2023-05-09T20:18:36.916Z,37.04
2023-05-09T20:21:04.191Z,37.14
2023-05-09T20:23:31.465Z,37.28
2023-05-09T20:25:58.358Z,37.37
2023-05-09T20:28:25.479Z,37.53
2023-05-09T20:30:52.186Z,37.62
2023-05-09T20:33:19.278Z,37.74
2023-05-09T20:35:45.983Z,37.79
2023-05-09T20:38:12.663Z,37.94
2023-05-09T20:40:40.412Z,38.13
2023-05-09T20:43:07.141Z,38.20
2023-05-09T20:45:37.499Z,38.34
2023-05-09T20:48:05.828Z,38.36
2023-05-09T20:50:32.588Z,38.43
2023-05-09T20:52:59.418Z,38.74
2023-05-09T20:55:26.018Z,38.78
2023-05-09T20:57:52.958Z,38.86
2023-05-09T21:00:21.383Z,39.01
2023-05-09T21:02:48.481Z,39.06
2023-05-09T21:05:16.723Z,39.22
2023-05-09T21:07:43.973Z,39.26
2023-05-09T21:10:12.059Z,39.37
2023-05-09T21:12:38.894Z,39.48
2023-05-09T21:15:08.575Z,39.65
2023-05-09T21:17:35.542Z,39.62
2023-05-09T21:20:04.554Z,39.75
2023-05-09T21:22:34.434Z,39.88
2023-05-09T21:25:01.251Z,39.96
2023-05-09T21:27:30.341Z,40.10
2023-05-09T21:29:57.462Z,40.12
2023-05-09T21:32:24.166Z,40.24
2023-05-09T21:34:51.089Z,40.32
2023-05-09T21:37:17.664Z,40.48
2023-05-09T21:39:45.258Z,40.60
2023-05-09T21:42:12.471Z,40.68
2023-05-09T21:44:39.056Z,40.85
2023-05-09T21:47:05.913Z,40.97
2023-05-09T21:49:32.715Z,41.09
2023-05-09T21:52:02.267Z,41.08
2023-05-09T21:54:28.917Z,41.15
2023-05-09T21:56:55.445Z,41.23
2023-05-09T21:59:22.401Z,41.35
2023-05-09T22:01:49.420Z,41.53
2023-05-09T22:04:16.298Z,41.61
2023-05-09T22:06:43.003Z,41.67
2023-05-09T22:09:10.649Z,41.73
2023-05-09T22:11:37.816Z,41.81
2023-05-09T22:14:04.584Z,41.95
2023-05-09T22:16:31.436Z,42.02
2023-05-09T22:18:58.492Z,42.00
2023-05-09T22:21:25.527Z,42.22
2023-05-09T22:23:52.210Z,42.23
2023-05-09T22:26:18.836Z,42.38
2023-05-09T22:28:45.554Z,42.40
2023-05-09T22:31:12.313Z,42.59
2023-05-09T22:33:38.834Z,42.67
2023-05-09T22:36:06.898Z,42.69
2023-05-09T22:38:33.570Z,42.79
2023-05-09T22:41:00.245Z,42.99
2023-05-09T22:43:28.928Z,43.01
2023-05-09T22:46:03.684Z,43.01
2023-05-09T22:48:30.317Z,43.07
2023-05-09T22:50:56.923Z,43.25
2023-05-09T22:53:23.687Z,43.21
2023-05-09T22:55:51.384Z,43.26
2023-05-09T22:58:18.666Z,43.29
2023-05-09T23:00:45.303Z,43.45
2023-05-09T23:03:12.015Z,43.71
2023-05-09T23:05:38.772Z,43.70
2023-05-09T23:08:05.463Z,43.78
2023-05-09T23:10:33.788Z,43.71
2023-05-09T23:13:00.476Z,43.65
2023-05-09T23:15:27.177Z,43.84
2023-05-09T23:17:53.719Z,43.88
2023-05-09T23:20:20.437Z,43.90
2023-05-09T23:22:46.996Z,43.90
2023-05-09T23:25:13.515Z,44.02
2023-05-09T23:27:40.827Z,44.20
2023-05-09T23:30:09.763Z,44.18
2023-05-09T23:32:36.859Z,44.30
2023-05-09T23:35:04.850Z,44.34
2023-05-09T23:37:32.150Z,44.59
2023-05-09T23:39:58.859Z,44.56
2023-05-09T23:42:25.492Z,44.58
2023-05-09T23:44:52.202Z,44.62
2023-05-09T23:47:18.840Z,44.63
2023-05-09T23:49:45.601Z,44.56
2023-05-09T23:52:12.210Z,44.72
2023-05-09T23:54:39.869Z,44.83
2023-05-09T23:57:06.436Z,44.84
2023-05-09T23:59:33.089Z,44.92
